createdAt,value
2017-07-20T00:01:26.429Z,85.30
2017-07-20T00:03:53.894Z,85.80
2017-07-20T00:06:21.388Z,85.40
2017-07-20T00:08:48.861Z,85.00
2017-07-20T00:11:16.370Z,85.50
2017-07-20T00:13:43.857Z,85.30
2017-07-20T00:16:11.355Z,85.20
2017-07-20T00:18:38.842Z,84.80
2017-07-20T00:21:06.337Z,85.60
2017-07-20T00:23:33.831Z,85.50
2017-07-20T00:26:02.103Z,86.40
2017-07-20T00:28:29.593Z,85.60
2017-07-20T00:30:57.090Z,85.10
2017-07-20T00:33:25.325Z,85.30
2017-07-20T00:35:52.802Z,85.20
2017-07-20T00:38:20.294Z,84.80
2017-07-20T00:40:47.774Z,84.60
2017-07-20T00:43:15.282Z,84.60
2017-07-20T00:45:42.768Z,84.70
2017-07-20T00:48:10.249Z,85.00
2017-07-20T00:50:37.720Z,86.30
2017-07-20T00:53:05.216Z,86.00
2017-07-20T00:55:32.690Z,85.70
2017-07-20T00:58:00.186Z,85.40
2017-07-20T01:00:27.657Z,86.10
2017-07-20T01:02:55.160Z,85.40
2017-07-20T01:05:22.690Z,85.40
2017-07-20T01:07:50.182Z,85.60
2017-07-20T01:10:17.646Z,85.70
2017-07-20T01:12:45.157Z,86.00
2017-07-20T01:15:12.626Z,86.50
2017-07-20T01:17:40.121Z,87.00
2017-07-20T01:20:07.595Z,87.20
2017-07-20T01:22:35.091Z,87.60
2017-07-20T01:25:03.330Z,87.80
2017-07-20T01:27:30.807Z,87.70
2017-07-20T01:29:58.301Z,87.60
2017-07-20T01:32:25.775Z,87.40
2017-07-20T01:34:53.270Z,87.90
2017-07-20T01:37:20.752Z,87.70
2017-07-20T01:39:49.010Z,88.10
2017-07-20T01:42:16.495Z,88.00
2017-07-20T01:44:43.982Z,88.10
2017-07-20T01:47:11.456Z,88.30
2017-07-20T01:49:38.972Z,88.70
2017-07-20T01:52:06.446Z,89.00
2017-07-20T01:54:33.953Z,89.40
2017-07-20T01:57:01.451Z,90.20
2017-07-20T01:59:28.938Z,90.40
2017-07-20T02:01:56.415Z,90.30
2017-07-20T02:04:23.907Z,90.30
2017-07-20T02:06:52.156Z,91.10
2017-07-20T02:09:19.647Z,91.10
2017-07-20T02:11:47.125Z,91.20
2017-07-20T02:14:14.633Z,90.90
2017-07-20T02:16:42.107Z,90.80
2017-07-20T02:19:09.589Z,90.80
2017-07-20T02:21:37.086Z,91.00
2017-07-20T02:24:04.571Z,91.30
2017-07-20T02:26:32.065Z,91.80
2017-07-20T02:28:59.537Z,92.20
2017-07-20T02:31:27.106Z,93.00
2017-07-20T02:33:54.589Z,93.70
2017-07-20T02:36:22.099Z,94.40
2017-07-20T02:38:49.581Z,95.20
2017-07-20T02:41:17.835Z,96.40
2017-07-20T02:43:45.318Z,96.40
2017-07-20T02:46:12.811Z,95.90
2017-07-20T02:48:40.282Z,96.70
2017-07-20T02:51:07.789Z,96.80
2017-07-20T02:53:35.266Z,96.50
2017-07-20T02:56:02.766Z,96.30
2017-07-20T02:58:30.247Z,95.60
2017-07-20T03:00:57.750Z,95.50
2017-07-20T03:03:25.222Z,96.30
2017-07-20T03:05:52.721Z,96.10
2017-07-20T03:08:20.196Z,97.50
2017-07-20T03:10:48.445Z,96.70
2017-07-20T03:13:15.956Z,96.70
2017-07-20T03:15:43.430Z,96.70
2017-07-20T03:18:10.937Z,96.20
2017-07-20T03:20:38.411Z,96.20
2017-07-20T03:23:05.905Z,96.30
2017-07-20T03:25:33.399Z,96.90
2017-07-20T03:28:00.902Z,96.80
2017-07-20T03:30:28.379Z,96.90
2017-07-20T03:32:55.874Z,97.00
2017-07-20T03:35:24.119Z,96.50
2017-07-20T03:37:51.661Z,96.50
2017-07-20T03:40:19.144Z,97.00
2017-07-20T03:42:46.651Z,97.30
2017-07-20T03:45:14.122Z,97.50
2017-07-20T03:47:41.599Z,97.40
2017-07-20T03:50:09.094Z,97.20
2017-07-20T03:52:36.566Z,97.00
2017-07-20T03:55:04.059Z,96.50
2017-07-20T03:57:31.530Z,96.40
2017-07-20T03:59:59.144Z,95.40
2017-07-20T04:02:26.626Z,96.10
2017-07-20T04:04:54.127Z,95.20
2017-07-20T04:07:21.599Z,95.50
2017-07-20T04:09:49.094Z,95.70
2017-07-20T04:12:16.578Z,95.80
2017-07-20T04:14:44.093Z,95.00
2017-07-20T04:17:11.673Z,95.20
2017-07-20T04:19:39.145Z,95.50
2017-07-20T04:22:06.638Z,95.10
2017-07-20T04:24:34.121Z,95.30
2017-07-20T04:27:01.614Z,94.90
2017-07-20T04:29:29.090Z,94.80
2017-07-20T04:31:56.594Z,95.10
2017-07-20T04:34:24.081Z,94.80
2017-07-20T04:36:52.358Z,94.90
2017-07-20T04:39:19.838Z,94.90
2017-07-20T04:41:47.339Z,94.90
2017-07-20T04:44:14.815Z,94.50
2017-07-20T04:46:43.062Z,93.30
2017-07-20T04:49:10.553Z,93.30
2017-07-20T04:51:38.034Z,93.70
2017-07-20T04:54:05.535Z,93.40
2017-07-20T04:56:33.010Z,93.10
2017-07-20T04:59:00.511Z,93.50
2017-07-20T05:01:27.988Z,92.60
2017-07-20T05:03:55.477Z,92.60
2017-07-20T05:06:23.011Z,92.50
2017-07-20T05:08:50.498Z,92.50
2017-07-20T05:11:17.967Z,92.10
2017-07-20T05:13:45.462Z,92.00
2017-07-20T05:16:12.948Z,92.00
2017-07-20T05:18:40.453Z,92.40
2017-07-20T05:21:07.941Z,92.30
2017-07-20T05:23:35.434Z,92.40
2017-07-20T05:26:02.907Z,92.50
2017-07-20T05:28:30.384Z,92.60
2017-07-20T05:30:57.883Z,92.80
2017-07-20T05:33:25.354Z,92.90
2017-07-20T05:35:52.856Z,92.80
2017-07-20T05:38:20.343Z,92.80
2017-07-20T05:40:47.838Z,92.80
2017-07-20T05:43:15.322Z,92.90
2017-07-20T05:45:42.812Z,92.80
2017-07-20T05:48:11.072Z,92.50
2017-07-20T05:50:38.562Z,92.50
2017-07-20T05:53:06.061Z,92.40
2017-07-20T05:55:33.565Z,92.20
2017-07-20T05:58:01.042Z,91.90
2017-07-20T06:00:28.523Z,91.80
2017-07-20T06:02:56.014Z,91.60
2017-07-20T06:05:23.498Z,91.10
2017-07-20T06:07:50.996Z,90.90
2017-07-20T06:10:18.465Z,90.70
2017-07-20T06:12:45.965Z,89.40
2017-07-20T06:15:13.447Z,85.20
2017-07-20T06:17:40.958Z,81.70
2017-07-20T06:20:08.451Z,80.30
2017-07-20T06:22:35.969Z,82.70
2017-07-20T06:25:04.226Z,79.20
2017-07-20T06:27:31.723Z,79.20
2017-07-20T06:29:59.966Z,77.00
2017-07-20T06:32:27.461Z,76.90
2017-07-20T06:34:54.951Z,77.80
2017-07-20T06:37:22.485Z,79.10
2017-07-20T06:39:49.960Z,79.70
2017-07-20T06:42:17.438Z,79.70
2017-07-20T06:44:44.946Z,80.80
2017-07-20T06:47:12.435Z,82.90
2017-07-20T06:49:39.930Z,85.40
2017-07-20T06:52:08.186Z,89.20
2017-07-20T06:54:35.686Z,89.20
2017-07-20T06:57:03.196Z,90.10
2017-07-20T06:59:30.685Z,90.50
2017-07-20T07:01:58.179Z,90.50
2017-07-20T07:04:25.686Z,90.70
2017-07-20T07:06:53.175Z,90.40
2017-07-20T07:09:21.438Z,90.20
2017-07-20T07:11:48.920Z,90.20
2017-07-20T07:14:17.633Z,89.90
2017-07-20T07:16:45.106Z,89.80
2017-07-20T07:19:12.588Z,90.20
2017-07-20T07:21:40.075Z,90.10
2017-07-20T07:24:08.318Z,90.30
2017-07-20T07:26:35.810Z,90.30
2017-07-20T07:29:03.311Z,90.00
2017-07-20T07:31:30.802Z,90.60
2017-07-20T07:33:58.285Z,91.40
2017-07-20T07:36:25.786Z,92.10
2017-07-20T07:38:53.270Z,93.10
2017-07-20T07:41:20.770Z,94.00
2017-07-20T07:43:48.253Z,93.00
2017-07-20T07:46:15.768Z,93.40
2017-07-20T07:48:43.246Z,93.50
2017-07-20T07:51:10.762Z,92.50
2017-07-20T07:53:38.242Z,92.30
2017-07-20T07:56:05.722Z,92.30
2017-07-20T07:58:33.240Z,92.40
2017-07-20T08:01:00.720Z,91.70
2017-07-20T08:03:28.211Z,91.50
2017-07-20T08:05:55.695Z,92.00
2017-07-20T08:08:23.185Z,91.40
2017-07-20T08:10:50.674Z,91.40
2017-07-20T08:13:18.162Z,91.80
2017-07-20T08:15:46.421Z,91.70
2017-07-20T08:18:13.910Z,91.60
2017-07-20T08:20:41.396Z,90.80
2017-07-20T08:23:08.886Z,91.00
2017-07-20T08:25:36.366Z,90.70
2017-07-20T08:28:03.887Z,90.30
2017-07-20T08:30:31.357Z,90.20
2017-07-20T08:32:58.842Z,88.60
2017-07-20T08:35:26.332Z,87.60
2017-07-20T08:37:53.813Z,85.90
2017-07-20T08:40:21.301Z,83.20
2017-07-20T08:42:48.778Z,84.10
2017-07-20T08:45:16.278Z,82.60
2017-07-20T08:47:44.517Z,86.30
2017-07-20T08:50:12.004Z,87.10
2017-07-20T08:52:39.475Z,86.80
2017-07-20T08:55:06.968Z,84.70
2017-07-20T08:57:34.462Z,86.00
2017-07-20T09:00:02.725Z,84.30
2017-07-20T09:02:30.217Z,84.20
2017-07-20T09:04:57.702Z,83.50
2017-07-20T09:07:25.973Z,81.20
2017-07-20T09:09:53.453Z,80.20
2017-07-20T09:12:20.930Z,80.70
2017-07-20T09:14:48.419Z,78.20
2017-07-20T09:17:15.902Z,79.60
2017-07-20T09:19:43.438Z,79.60
2017-07-20T09:22:10.916Z,79.10
2017-07-20T09:24:38.390Z,78.00
2017-07-20T09:27:05.881Z,76.40
2017-07-20T09:29:33.349Z,74.30
2017-07-20T09:32:00.846Z,72.90
2017-07-20T09:34:28.318Z,72.90
2017-07-20T09:36:55.814Z,72.60
2017-07-20T09:39:24.054Z,73.80
2017-07-20T09:41:51.550Z,72.90
2017-07-20T09:44:19.043Z,72.60
2017-07-20T09:46:46.544Z,72.00
2017-07-20T09:49:14.019Z,69.50
2017-07-20T09:51:42.277Z,68.90
2017-07-20T09:54:09.777Z,68.90
2017-07-20T09:56:38.025Z,69.00
2017-07-20T09:59:05.530Z,68.90
2017-07-20T10:01:33.011Z,69.60
2017-07-20T10:04:00.514Z,69.10
2017-07-20T10:06:28.000Z,68.80
2017-07-20T10:08:55.488Z,69.50
2017-07-20T10:11:22.984Z,69.60
2017-07-20T10:13:50.474Z,68.60
2017-07-20T10:16:17.935Z,69.00
2017-07-20T10:18:45.438Z,69.60
2017-07-20T10:21:12.910Z,70.30
2017-07-20T10:23:40.399Z,70.90
2017-07-20T10:26:08.634Z,71.30
2017-07-20T10:28:36.123Z,71.30
2017-07-20T10:31:03.589Z,71.00
2017-07-20T10:33:31.094Z,72.00
2017-07-20T10:35:58.580Z,71.60
2017-07-20T10:38:26.091Z,70.80
2017-07-20T10:40:53.566Z,70.00
2017-07-20T10:43:21.042Z,70.80
2017-07-20T10:45:48.534Z,71.50
2017-07-20T10:48:16.006Z,72.40
2017-07-20T10:50:43.490Z,72.50
2017-07-20T10:53:10.992Z,73.50
2017-07-20T10:55:38.488Z,74.10
2017-07-20T10:58:05.958Z,73.80
2017-07-20T11:00:33.450Z,74.30
2017-07-20T11:03:01.721Z,73.90
2017-07-20T11:05:29.204Z,73.80
2017-07-20T11:07:57.455Z,73.50
2017-07-20T11:10:24.960Z,73.50
2017-07-20T11:12:52.434Z,73.90
2017-07-20T11:15:19.926Z,74.30
2017-07-20T11:17:47.394Z,75.70
2017-07-20T11:20:14.876Z,76.30
2017-07-20T11:22:42.358Z,77.00
2017-07-20T11:25:10.682Z,77.30
2017-07-20T11:27:38.153Z,78.10
2017-07-20T11:30:05.629Z,77.40
2017-07-20T11:32:33.123Z,77.10
2017-07-20T11:35:00.612Z,76.40
2017-07-20T11:37:28.097Z,76.30
2017-07-20T11:39:55.570Z,78.00
2017-07-20T11:42:23.062Z,79.80
2017-07-20T11:44:50.598Z,80.70
2017-07-20T11:47:18.134Z,82.00
2017-07-20T11:49:46.374Z,83.20
2017-07-20T11:52:13.878Z,82.80
2017-07-20T11:54:41.367Z,82.50
2017-07-20T11:57:09.678Z,84.30
2017-07-20T11:59:37.926Z,85.40
2017-07-20T12:02:05.446Z,85.30
2017-07-20T12:04:33.704Z,88.70
2017-07-20T12:07:01.214Z,87.90
2017-07-20T12:11:57.364Z,89.80
2017-07-20T12:14:24.855Z,89.00
2017-07-20T12:16:52.319Z,87.70
2017-07-20T12:19:19.806Z,87.20
2017-07-20T12:21:48.042Z,86.10
2017-07-20T12:24:15.530Z,86.10
2017-07-20T12:26:43.773Z,82.20
2017-07-20T12:29:11.274Z,82.10
2017-07-20T12:31:38.743Z,77.60
2017-07-20T12:34:06.234Z,75.20
2017-07-20T12:36:33.710Z,75.20
2017-07-20T12:39:01.194Z,75.40
2017-07-20T12:41:28.663Z,75.30
2017-07-20T12:43:56.157Z,74.80
2017-07-20T12:46:23.626Z,76.30
2017-07-20T12:48:51.114Z,75.70
2017-07-20T12:51:18.587Z,75.20
2017-07-20T12:53:46.079Z,76.60
2017-07-20T12:56:13.546Z,74.60
2017-07-20T12:58:41.044Z,70.50
2017-07-20T13:01:08.522Z,67.50
2017-07-20T13:03:36.035Z,64.20
2017-07-20T13:06:03.515Z,61.90
2017-07-20T13:08:30.994Z,61.90
2017-07-20T13:10:58.506Z,62.80
2017-07-20T13:13:25.971Z,62.70
2017-07-20T13:15:53.459Z,64.10
2017-07-20T13:18:20.925Z,64.20
2017-07-20T13:20:48.430Z,64.00
2017-07-20T13:23:15.917Z,63.30
2017-07-20T13:25:43.407Z,64.30
2017-07-20T13:28:11.638Z,62.00
2017-07-20T13:30:39.132Z,61.10
2017-07-20T13:33:06.615Z,59.00
2017-07-20T13:35:34.112Z,57.10
2017-07-20T13:38:01.574Z,56.50
2017-07-20T13:40:29.079Z,56.00
2017-07-20T13:42:56.550Z,57.40
2017-07-20T13:45:24.022Z,58.00
2017-07-20T13:47:51.518Z,58.40
2017-07-20T13:50:19.756Z,55.60
2017-07-20T13:52:47.250Z,55.60
2017-07-20T13:55:15.497Z,54.60
2017-07-20T13:57:42.984Z,54.50
2017-07-20T14:00:10.455Z,53.90
2017-07-20T14:02:37.937Z,55.10
2017-07-20T14:05:05.411Z,54.90
2017-07-20T14:07:32.893Z,55.80
2017-07-20T14:10:01.132Z,54.70
2017-07-20T14:12:28.614Z,54.70
2017-07-20T14:14:56.090Z,54.20
2017-07-20T14:17:23.595Z,53.50
2017-07-20T14:19:51.065Z,54.30
2017-07-20T14:22:18.541Z,54.80
2017-07-20T14:24:46.795Z,55.80
2017-07-20T14:27:14.258Z,55.80
2017-07-20T14:29:42.514Z,56.80
2017-07-20T14:32:09.979Z,56.70
2017-07-20T14:34:37.466Z,57.70
2017-07-20T14:37:04.938Z,58.70
2017-07-20T14:39:32.426Z,59.00
2017-07-20T14:41:59.895Z,58.50
2017-07-20T14:44:27.386Z,58.10
2017-07-20T14:46:54.863Z,56.80
2017-07-20T14:49:22.346Z,57.60
2017-07-20T14:51:49.814Z,57.30
2017-07-20T14:54:17.298Z,56.50
2017-07-20T14:56:44.772Z,56.30
2017-07-20T14:59:12.246Z,56.90
2017-07-20T15:01:39.734Z,56.30
2017-07-20T15:04:07.203Z,57.20
2017-07-20T15:06:35.466Z,55.40
2017-07-20T15:09:03.708Z,56.00
2017-07-20T15:11:31.198Z,56.10
2017-07-20T15:13:59.437Z,58.20
2017-07-20T15:16:26.917Z,58.20
2017-07-20T15:18:54.387Z,59.00
2017-07-20T15:21:22.643Z,61.30
2017-07-20T15:23:50.114Z,61.20
2017-07-20T15:26:18.366Z,64.90
2017-07-20T15:28:45.839Z,64.90
2017-07-20T15:31:13.330Z,65.50
2017-07-20T15:33:40.802Z,66.10
2017-07-20T15:36:08.290Z,66.70
2017-07-20T15:38:35.754Z,67.70
2017-07-20T15:41:03.988Z,70.00
2017-07-20T15:43:31.474Z,70.00
2017-07-20T15:45:58.945Z,70.40
2017-07-20T15:48:26.434Z,71.50
2017-07-20T15:50:53.901Z,71.40
2017-07-20T15:53:21.389Z,71.20
2017-07-20T15:55:49.625Z,71.80
2017-07-20T15:58:17.112Z,71.80
2017-07-20T16:00:44.587Z,72.60
2017-07-20T16:03:12.080Z,73.10
2017-07-20T16:05:39.558Z,72.30
2017-07-20T16:08:07.037Z,70.70
2017-07-20T16:10:35.282Z,72.40
2017-07-20T16:13:02.767Z,72.40
2017-07-20T16:15:30.998Z,70.70
2017-07-20T16:17:58.482Z,70.00
2017-07-20T16:20:25.946Z,67.60
2017-07-20T16:22:54.198Z,68.60
2017-07-20T16:25:21.671Z,68.50
2017-07-20T16:27:49.930Z,67.20
2017-07-20T16:30:17.398Z,67.10
2017-07-20T16:32:45.666Z,66.80
2017-07-20T16:35:13.130Z,66.70
2017-07-20T16:37:40.599Z,65.10
2017-07-20T16:40:08.083Z,63.50
2017-07-20T16:42:35.559Z,64.10
2017-07-20T16:45:03.050Z,62.90
2017-07-20T16:47:31.286Z,62.20
2017-07-20T16:49:58.774Z,62.00
2017-07-20T16:52:27.020Z,59.00
2017-07-20T16:54:54.502Z,59.00
2017-07-20T16:57:22.738Z,58.00
2017-07-20T16:59:50.233Z,58.00
2017-07-20T17:02:18.479Z,57.90
2017-07-20T17:04:45.962Z,57.90
2017-07-20T17:07:14.198Z,58.50
2017-07-20T17:09:41.688Z,58.50
2017-07-20T17:12:09.927Z,59.00
2017-07-20T17:14:37.428Z,59.00
2017-07-20T17:17:04.898Z,58.90
2017-07-20T17:19:32.395Z,58.20
2017-07-20T17:21:59.876Z,59.00
2017-07-20T17:24:27.399Z,59.20
2017-07-20T17:26:54.870Z,59.10
2017-07-20T17:29:22.337Z,59.50
2017-07-20T17:31:50.591Z,60.00
2017-07-20T17:34:18.068Z,60.00
2017-07-20T17:36:46.318Z,60.30
2017-07-20T17:41:48.391Z,60.30
2017-07-20T17:44:15.861Z,60.00
2017-07-20T17:46:44.114Z,58.80
2017-07-20T17:49:11.583Z,58.70
2017-07-20T17:51:39.086Z,59.10
2017-07-20T17:54:06.571Z,58.90
2017-07-20T17:56:34.057Z,59.10
2017-07-20T17:59:02.295Z,55.70
2017-07-20T18:01:29.794Z,55.70
2017-07-20T18:03:58.035Z,53.80
2017-07-20T18:06:25.512Z,53.80
2017-07-20T18:08:53.771Z,52.60
2017-07-20T18:11:21.242Z,52.50
2017-07-20T18:13:48.738Z,52.30
2017-07-20T18:16:16.211Z,51.80
2017-07-20T18:18:43.706Z,51.40
2017-07-20T18:21:11.966Z,50.80
2017-07-20T18:23:39.455Z,50.80
2017-07-20T18:26:06.930Z,50.60
2017-07-20T18:28:34.427Z,50.80
2017-07-20T18:31:01.900Z,50.60
2017-07-20T18:33:29.409Z,50.20
2017-07-20T18:35:56.891Z,50.30
2017-07-20T18:38:24.383Z,50.60
2017-07-20T18:40:51.870Z,50.50
2017-07-20T18:43:19.346Z,50.70
2017-07-20T18:45:46.836Z,50.90
2017-07-20T18:48:15.070Z,50.80
2017-07-20T18:50:42.553Z,50.80
2017-07-20T18:53:10.799Z,51.10
2017-07-20T18:55:38.296Z,51.10
2017-07-20T18:58:05.778Z,51.20
2017-07-20T19:00:33.270Z,50.90
2017-07-20T19:03:00.756Z,51.20
2017-07-20T19:05:28.244Z,51.40
2017-07-20T19:07:55.720Z,51.50
2017-07-20T19:10:23.224Z,51.70
2017-07-20T19:12:50.697Z,52.00
2017-07-20T19:15:18.190Z,52.20
2017-07-20T19:17:45.658Z,52.30
2017-07-20T19:20:13.145Z,52.40
2017-07-20T19:22:40.614Z,52.60
2017-07-20T19:25:08.110Z,52.60
2017-07-20T19:27:35.578Z,52.90
2017-07-20T19:30:03.851Z,53.40
2017-07-20T19:32:32.092Z,52.60
2017-07-20T19:34:59.565Z,52.60
2017-07-20T19:37:27.050Z,53.00
2017-07-20T19:39:55.283Z,53.50
2017-07-20T19:42:22.771Z,53.50
2017-07-20T19:44:51.032Z,54.00
2017-07-20T19:47:18.514Z,53.90
2017-07-20T19:49:45.995Z,54.10
2017-07-20T19:52:13.478Z,54.00
2017-07-20T19:54:40.953Z,54.00
2017-07-20T19:57:08.437Z,53.90
2017-07-20T19:59:35.909Z,53.90
2017-07-20T20:02:03.399Z,53.90
2017-07-20T20:04:30.881Z,54.00
2017-07-20T20:06:58.423Z,54.00
2017-07-20T20:09:25.895Z,54.00
2017-07-20T20:11:53.421Z,54.40
2017-07-20T20:14:20.906Z,54.50
2017-07-20T20:16:48.450Z,54.70
2017-07-20T20:19:16.705Z,54.60
2017-07-20T20:21:44.204Z,54.60
2017-07-20T20:24:11.699Z,54.80
2017-07-20T20:26:39.182Z,54.70
2017-07-20T20:29:07.447Z,55.20
2017-07-20T20:31:34.922Z,54.60
2017-07-20T20:34:03.214Z,54.90
2017-07-20T20:36:30.690Z,54.90
2017-07-20T20:38:58.391Z,55.30
2017-07-20T20:41:25.897Z,55.60
2017-07-20T20:43:53.644Z,55.80
2017-07-20T20:46:21.200Z,56.10
2017-07-20T20:48:48.707Z,56.10
2017-07-20T20:51:16.362Z,56.40
2017-07-20T20:53:43.878Z,56.50
2017-07-20T20:56:11.355Z,56.80
2017-07-20T20:58:38.835Z,57.30
2017-07-20T21:01:06.322Z,57.00
2017-07-20T21:03:33.795Z,57.20
2017-07-20T21:06:01.294Z,57.50
2017-07-20T21:08:28.790Z,57.60
2017-07-20T21:10:56.292Z,57.70
2017-07-20T21:13:23.760Z,57.60
2017-07-20T21:15:51.243Z,57.70
2017-07-20T21:18:19.487Z,58.00
2017-07-20T21:20:47.763Z,57.80
2017-07-20T21:23:15.243Z,57.90
2017-07-20T21:25:43.498Z,58.00
2017-07-20T21:28:11.745Z,58.10
2017-07-20T21:30:39.234Z,58.10
2017-07-20T21:33:07.466Z,58.30
2017-07-20T21:35:34.973Z,58.30
2017-07-20T21:38:03.203Z,58.70
2017-07-20T21:40:30.723Z,58.70
2017-07-20T21:42:58.204Z,59.00
2017-07-20T21:45:25.689Z,59.10
2017-07-20T21:47:53.183Z,58.70
2017-07-20T21:50:20.664Z,58.80
2017-07-20T21:52:48.152Z,59.20
2017-07-20T21:55:15.622Z,58.50
2017-07-20T21:57:43.891Z,58.70
2017-07-20T22:00:12.130Z,58.80
2017-07-20T22:02:39.615Z,58.80
2017-07-20T22:05:07.864Z,58.90
2017-07-20T22:07:35.354Z,58.90
2017-07-20T22:10:02.826Z,59.00
2017-07-20T22:12:30.322Z,59.10
2017-07-20T22:14:57.793Z,59.10
2017-07-20T22:17:25.275Z,59.30
2017-07-20T22:19:52.750Z,59.50
2017-07-20T22:22:20.262Z,59.10
2017-07-20T22:24:48.759Z,59.60
2017-07-20T22:27:17.003Z,58.80
2017-07-20T22:29:44.486Z,58.80
2017-07-20T22:32:12.724Z,59.10
2017-07-20T22:34:40.213Z,59.10
2017-07-20T22:37:08.446Z,59.00
2017-07-20T22:39:35.933Z,58.90
2017-07-20T22:42:04.174Z,58.90
2017-07-20T22:44:31.667Z,58.80
2017-07-20T22:46:59.901Z,59.10
2017-07-20T22:49:27.396Z,59.10
2017-07-20T22:51:54.870Z,58.80
2017-07-20T22:54:22.352Z,59.00
2017-07-20T22:56:49.832Z,59.10
2017-07-20T22:59:17.347Z,59.50
2017-07-20T23:01:44.811Z,59.20
2017-07-20T23:04:12.281Z,60.90
2017-07-20T23:06:39.774Z,62.00
2017-07-20T23:09:07.251Z,62.70
2017-07-20T23:11:34.737Z,63.30
2017-07-20T23:14:02.211Z,63.60
2017-07-20T23:16:29.702Z,64.00
2017-07-20T23:18:57.182Z,64.90
2017-07-20T23:21:24.682Z,64.00
2017-07-20T23:23:52.938Z,64.20
2017-07-20T23:26:20.436Z,64.20
2017-07-20T23:28:47.908Z,64.20
2017-07-20T23:31:15.401Z,64.90
2017-07-20T23:33:42.879Z,64.80
2017-07-20T23:36:11.134Z,66.00
2017-07-20T23:38:38.614Z,66.00
2017-07-20T23:41:06.886Z,65.40
2017-07-20T23:43:35.135Z,65.90
2017-07-20T23:46:02.607Z,65.90
2017-07-20T23:48:30.868Z,65.80
2017-07-20T23:50:58.338Z,65.70
2017-07-20T23:53:26.597Z,65.60
2017-07-20T23:55:54.071Z,65.60
2017-07-20T23:58:21.567Z,65.80
